Accueil
METAR-TAF:

METAR-TAF

Aéroports :

Aéroport de Birmingham

Birmingham, Angleterre

latitude: 52-27N, longitude: 001-44W, altitude: 99 m

Observation

Le bulletin a été fait il y a 23 minutes, à 23:50 UTC
Vent 6 kt de nord-ouest
Température 9°C
Humidité 57%
Pression 1034 hPa
Visibilité 10 km ou plus
Nuages fragmentés à une hauteur de 3500 ft

METAR: EGBB 262350Z 31006KT 9999 BKN035 09/01 Q1034

Heure: 00:13 (00:13 UTC)

Prévision

Le bulletin a été fait il y a 1 heure et 15 minutes, à 22:58 UTC
Prévision valable du 27 à 00 UTC au 27 à 24 UTC
Vent 3 kt de ouest
Visibilité 10 km ou plus
Nuages épars à une hauteur de 4000 ft
Probabilité 30% :
Temporairement
du 27 à 02 UTC au 27 à 09 UTC
Visibilité: 6000 m
Probabilité 30%
du 27 à 22 UTC au 27 à 24 UTC
Visibilité: 9000 m

TAF: EGBB 262258Z 2700/2724 28003KT 9999 SCT040 PROB30 TEMPO 2702/2709 6000 PROB30 2722/2724 9000

Observations et prévisions météorologiques de plus de 4000 aéroports (messages METAR et TAF).

Les stations disponibles sont représentées par des disques jaunes et rouges sur la carte.

Passer la souris dessus pour voir le nom de la station.

Cliquer dessus pour voir les observations et prévisions météorologiques.

Pour changer de carte: cliquez sur les boutons verts avec une croix noire pour zoomer, sur le bouton vert avec un tiret pour effectuer un zoom arrière, ou sur les flèches vertes pour les cartes adjacentes.


METAR-TAF: